Time;durP1;ratioP1;P1;durP2;ratioP2;P2;SDS_P1;SDS_P2;PMS_P1;PMS_P2;Temp;Humidity;BMP_temperature;BMP_pressure;BME280_temperature;BME280_humidity;BME280_pressure;Samples;Min_cycle;Max_cycle;Signal;HPM_P1;HPM_P2
2022/01/29 00:02:18;;;;;;;12.20;4.68;;;8.10;97.00;;;;;;5071138;28;20226;-64
2022/01/29 00:04:46;;;;;;;12.52;4.18;;;8.10;97.00;;;;;;5072232;28;20616;-64
2022/01/29 00:07:13;;;;;;;17.48;8.50;;;8.10;97.00;;;;;;5071188;28;20229;-64
2022/01/29 00:09:42;;;;;;;12.88;6.10;;;8.10;97.00;;;;;;5072144;28;20228;-64
2022/01/29 00:12:10;;;;;;;18.17;4.82;;;8.10;97.00;;;;;;5072181;28;20236;-64
2022/01/29 00:14:37;;;;;;;8.60;3.47;;;8.10;97.00;;;;;;5071381;28;20320;-64
2022/01/29 00:17:04;;;;;;;15.48;4.10;;;8.10;96.90;;;;;;5072080;28;20313;-64
2022/01/29 00:19:32;;;;;;;15.55;4.13;;;8.10;96.90;;;;;;5062495;28;20249;-63
2022/01/29 00:22:03;;;;;;;8.48;4.45;;;8.10;96.90;;;;;;5071939;28;20241;-64
2022/01/29 00:24:29;;;;;;;13.40;4.55;;;8.10;96.90;;;;;;5070415;28;20716;-64
2022/01/29 00:26:56;;;;;;;11.68;4.90;;;8.10;96.90;;;;;;5071652;28;20566;-64
2022/01/29 00:29:23;;;;;;;13.02;3.47;;;8.10;96.90;;;;;;5071239;28;20218;-64
2022/01/29 00:31:50;;;;;;;11.02;4.20;;;8.10;96.90;;;;;;5072002;28;20699;-64
2022/01/29 00:34:17;;;;;;;14.48;4.13;;;8.10;96.90;;;;;;5070223;28;20213;-64
2022/01/29 00:36:45;;;;;;;9.00;3.65;;;8.10;96.90;;;;;;5069504;28;20225;-64
2022/01/29 00:39:12;;;;;;;7.60;3.92;;;8.10;96.90;;;;;;5070693;28;20243;-64
2022/01/29 00:41:39;;;;;;;11.82;3.78;;;8.10;96.90;;;;;;5071342;28;20362;-64
2022/01/29 00:44:06;;;;;;;9.10;4.22;;;8.10;97.00;;;;;;5065343;28;20228;-64
2022/01/29 00:46:33;;;;;;;9.30;4.80;;;8.10;97.00;;;;;;5058159;28;20235;-64
2022/01/29 00:49:00;;;;;;;12.02;4.50;;;8.10;97.00;;;;;;5038384;28;20646;-64
2022/01/29 00:51:26;;;;;;;10.80;3.95;;;8.10;96.90;;;;;;5042476;28;20230;-64
2022/01/29 00:53:54;;;;;;;15.02;4.47;;;8.10;96.70;;;;;;5031740;28;20224;-64
2022/01/29 00:56:21;;;;;;;10.50;3.90;;;8.10;96.70;;;;;;5047245;28;20227;-65
2022/01/29 00:58:48;;;;;;;13.93;3.97;;;8.10;96.70;;;;;;5061173;28;20219;-65
2022/01/29 01:01:15;;;;;;;5.70;3.70;;;8.10;96.80;;;;;;5052099;28;20247;-64
2022/01/29 01:03:42;;;;;;;10.27;4.38;;;8.20;96.80;;;;;;5046181;28;20234;-64
2022/01/29 01:06:09;;;;;;;12.82;4.60;;;8.20;96.80;;;;;;5041741;28;20223;-64
2022/01/29 01:08:36;;;;;;;10.82;3.70;;;8.10;96.70;;;;;;5047652;28;20223;-64
2022/01/29 01:11:05;;;;;;;14.30;4.15;;;8.20;96.80;;;;;;5047813;28;20237;-64
2022/01/29 01:13:32;;;;;;;11.55;4.97;;;8.20;96.70;;;;;;5071970;28;20230;-64
2022/01/29 01:15:59;;;;;;;7.72;3.33;;;8.10;96.70;;;;;;5053326;28;20234;-64
2022/01/29 01:18:26;;;;;;;12.07;4.75;;;8.10;96.80;;;;;;5059441;28;20218;-64
2022/01/29 01:20:53;;;;;;;8.23;3.10;;;8.10;96.90;;;;;;5054400;28;20699;-63
2022/01/29 01:23:21;;;;;;;12.73;3.33;;;8.10;96.90;;;;;;5054163;28;20227;-62
2022/01/29 01:25:48;;;;;;;10.10;3.67;;;8.10;96.90;;;;;;5054818;28;20222;-64
2022/01/29 01:28:16;;;;;;;9.95;3.65;;;8.10;96.90;;;;;;5045958;28;20223;-64
2022/01/29 01:30:44;;;;;;;8.15;3.50;;;8.10;96.90;;;;;;5044670;28;20233;-63
2022/01/29 01:33:11;;;;;;;12.50;5.00;;;8.10;97.20;;;;;;5047052;28;20568;-64
2022/01/29 01:35:42;;;;;;;9.32;4.22;;;8.10;96.80;;;;;;5046757;28;20222;-63
2022/01/29 01:38:14;;;;;;;18.15;5.53;;;8.00;96.70;;;;;;5053925;28;20318;-64
2022/01/29 01:40:44;;;;;;;14.10;5.35;;;8.00;97.00;;;;;;5049649;28;20251;-64
2022/01/29 01:43:11;;;;;;;10.68;6.57;;;7.90;97.00;;;;;;5039297;28;20261;-64
2022/01/29 01:45:40;;;;;;;25.08;9.85;;;8.00;97.10;;;;;;5047474;28;20235;-63
2022/01/29 01:48:07;;;;;;;23.55;7.80;;;8.00;97.00;;;;;;5046131;28;20546;-63
2022/01/29 01:50:35;;;;;;;16.90;7.50;;;8.00;97.00;;;;;;5043732;28;20237;-63
2022/01/29 01:53:10;;;;;;;10.65;4.55;;;8.00;97.10;;;;;;5061840;28;20233;-63
2022/01/29 01:55:37;;;;;;;17.23;4.20;;;7.90;97.00;;;;;;5040901;28;20336;-63
2022/01/29 01:58:04;;;;;;;16.15;6.07;;;7.80;97.00;;;;;;5042408;28;20226;-63
2022/01/29 02:00:32;;;;;;;22.05;7.45;;;7.90;97.20;;;;;;5048786;28;20227;-63
2022/01/29 02:03:00;;;;;;;17.05;5.30;;;7.80;97.20;;;;;;5040730;28;20242;-63
2022/01/29 02:05:27;;;;;;;14.57;3.67;;;7.70;97.50;;;;;;5046063;28;20233;-63
2022/01/29 02:07:54;;;;;;;18.33;5.50;;;7.70;97.70;;;;;;5046328;28;20226;-63
2022/01/29 02:10:24;;;;;;;9.90;3.47;;;7.70;97.80;;;;;;5044005;28;20650;-63
2022/01/29 02:12:53;;;;;;;9.35;4.40;;;7.70;98.00;;;;;;5040613;28;20250;-63
2022/01/29 02:15:21;;;;;;;12.77;5.05;;;7.60;98.10;;;;;;5043994;28;20756;-64
2022/01/29 02:17:49;;;;;;;11.93;3.67;;;7.50;98.20;;;;;;5036867;28;20224;-63
2022/01/29 02:20:21;;;;;;;11.20;4.10;;;7.50;98.30;;;;;;5053958;28;20235;-63
2022/01/29 02:22:50;;;;;;;11.80;4.10;;;7.50;98.40;;;;;;5039721;28;20312;-63
2022/01/29 02:25:34;;;;;;;10.73;4.75;;;7.40;99.10;;;;;;5053420;28;20225;-63
2022/01/29 02:28:03;;;;;;;13.63;4.63;;;7.40;99.00;;;;;;5040889;28;20226;-63
2022/01/29 02:30:32;;;;;;;10.57;3.70;;;7.30;99.50;;;;;;5041483;28;20231;-63
2022/01/29 02:33:00;;;;;;;9.55;4.65;;;7.30;99.60;;;;;;5049360;28;20226;-63
2022/01/29 02:35:27;;;;;;;9.82;3.90;;;7.30;99.50;;;;;;5040819;28;20593;-63
2022/01/29 02:37:56;;;;;;;11.43;4.55;;;7.30;99.60;;;;;;5053043;28;20584;-63
2022/01/29 02:40:26;;;;;;;11.38;5.70;;;7.30;99.80;;;;;;5040129;28;20230;-63
2022/01/29 02:42:55;;;;;;;18.88;4.90;;;7.30;99.90;;;;;;5042555;28;20223;-63
2022/01/29 02:45:22;;;;;;;18.13;4.57;;;7.30;99.90;;;;;;5046743;28;20229;-63
2022/01/29 02:47:49;;;;;;;8.75;4.10;;;7.30;99.90;;;;;;5044124;28;20224;-63
2022/01/29 02:50:16;;;;;;;13.55;3.63;;;7.30;99.90;;;;;;5040022;28;20237;-63
2022/01/29 02:52:43;;;;;;;9.73;4.88;;;7.30;99.90;;;;;;5048256;28;20222;-63
2022/01/29 02:55:11;;;;;;;14.25;3.80;;;7.30;99.90;;;;;;5039681;28;20664;-62
2022/01/29 02:57:38;;;;;;;11.65;4.30;;;7.30;99.90;;;;;;5041345;28;20241;-63
2022/01/29 03:00:10;;;;;;;16.08;5.72;;;7.30;99.90;;;;;;5041474;28;20218;-63
2022/01/29 03:02:38;;;;;;;14.68;4.40;;;7.30;99.90;;;;;;5040221;28;20576;-63
2022/01/29 03:05:05;;;;;;;10.10;4.72;;;7.30;99.90;;;;;;5039343;28;20316;-63
2022/01/29 03:07:32;;;;;;;11.65;4.82;;;7.30;99.90;;;;;;5039415;28;20231;-62
2022/01/29 03:09:59;;;;;;;18.17;5.60;;;7.40;99.90;;;;;;5050734;28;20243;-63
2022/01/29 03:12:27;;;;;;;18.55;8.32;;;7.30;99.90;;;;;;5051904;28;20227;-63
2022/01/29 03:14:54;;;;;;;22.50;11.65;;;7.30;99.90;;;;;;5034360;28;20235;-63
2022/01/29 03:17:21;;;;;;;18.83;10.05;;;7.30;99.90;;;;;;5052827;28;20504;-63
2022/01/29 03:19:50;;;;;;;19.85;10.88;;;7.30;99.90;;;;;;5050809;28;20227;-64
2022/01/29 03:22:17;;;;;;;17.73;6.90;;;7.30;99.90;;;;;;5068155;28;20657;-63
2022/01/29 03:24:44;;;;;;;10.93;5.65;;;7.20;99.90;;;;;;5070689;28;20250;-63
2022/01/29 03:27:11;;;;;;;17.25;4.90;;;7.20;99.90;;;;;;5072465;28;20695;-64
2022/01/29 03:29:39;;;;;;;11.20;4.93;;;7.10;99.90;;;;;;5072718;28;20228;-62
2022/01/29 03:32:07;;;;;;;25.73;6.70;;;7.10;99.90;;;;;;5072075;28;20226;-63
2022/01/29 03:34:36;;;;;;;16.58;5.05;;;7.00;99.90;;;;;;5072524;28;20226;-63
2022/01/29 03:37:09;;;;;;;13.05;4.75;;;7.00;99.90;;;;;;5055559;28;20229;-64
2022/01/29 03:39:37;;;;;;;10.00;5.32;;;7.00;99.90;;;;;;5052623;28;20225;-63
2022/01/29 03:42:08;;;;;;;13.23;5.50;;;7.00;99.90;;;;;;5047375;28;20688;-63
2022/01/29 03:44:35;;;;;;;18.27;6.13;;;6.90;99.90;;;;;;5065070;28;20244;-63
2022/01/29 03:47:03;;;;;;;20.50;5.63;;;6.90;99.90;;;;;;5045801;28;20227;-63
2022/01/29 03:49:30;;;;;;;14.35;6.25;;;6.90;99.90;;;;;;5060330;28;20256;-64
2022/01/29 03:51:57;;;;;;;9.30;5.70;;;6.90;99.90;;;;;;5059294;28;20221;-64
2022/01/29 03:54:23;;;;;;;8.68;6.07;;;6.80;99.90;;;;;;5054944;28;20230;-64
2022/01/29 03:56:50;;;;;;;13.00;6.10;;;6.80;99.90;;;;;;5059458;28;20222;-64
2022/01/29 03:59:19;;;;;;;17.02;6.35;;;6.80;99.90;;;;;;5070097;28;20220;-64
2022/01/29 04:01:46;;;;;;;8.90;5.43;;;6.80;99.90;;;;;;5065185;28;20628;-64
2022/01/29 04:04:14;;;;;;;14.88;6.63;;;6.80;99.90;;;;;;5052186;28;20237;-63
2022/01/29 04:06:41;;;;;;;17.08;6.90;;;6.80;99.90;;;;;;5057875;28;20693;-62
2022/01/29 04:09:11;;;;;;;11.73;5.85;;;6.80;99.90;;;;;;5052151;28;20226;-63
2022/01/29 04:11:40;;;;;;;9.70;6.68;;;6.70;99.90;;;;;;5047302;28;20682;-63
2022/01/29 04:14:16;;;;;;;13.73;6.43;;;6.80;99.90;;;;;;5049748;28;20566;-63
2022/01/29 04:16:44;;;;;;;11.45;5.18;;;6.80;99.90;;;;;;5035726;28;20226;-63
2022/01/29 04:19:11;;;;;;;11.48;6.40;;;6.80;99.90;;;;;;5035573;28;20245;-65
2022/01/29 04:21:41;;;;;;;15.18;6.97;;;6.80;99.90;;;;;;5030316;28;20230;-63
2022/01/29 04:24:08;;;;;;;16.63;6.88;;;6.80;99.90;;;;;;5036228;28;20230;-63
2022/01/29 04:26:35;;;;;;;13.35;6.30;;;6.90;99.90;;;;;;5028977;28;20241;-63
2022/01/29 04:29:05;;;;;;;18.25;7.30;;;7.00;99.90;;;;;;5048307;28;20217;-64
2022/01/29 04:31:39;;;;;;;9.57;6.72;;;6.80;99.90;;;;;;5036272;28;20575;-62
2022/01/29 04:34:06;;;;;;;18.38;7.47;;;6.90;99.90;;;;;;5038038;28;20688;-64
2022/01/29 04:36:33;;;;;;;13.43;7.18;;;6.90;99.90;;;;;;5026630;28;20243;-65
2022/01/29 04:39:01;;;;;;;17.23;6.82;;;7.00;99.90;;;;;;5035192;28;20223;-64
2022/01/29 04:41:28;;;;;;;15.32;7.70;;;7.00;99.90;;;;;;5030593;28;20230;-64
2022/01/29 04:43:55;;;;;;;16.48;7.10;;;7.00;99.90;;;;;;5029937;28;20337;-64
2022/01/29 04:46:22;;;;;;;14.13;8.43;;;7.00;99.90;;;;;;5024685;28;20282;-64
2022/01/29 04:48:50;;;;;;;18.90;8.57;;;7.00;99.90;;;;;;5028653;28;20277;-63
2022/01/29 04:51:17;;;;;;;16.42;8.02;;;7.00;99.90;;;;;;5024130;28;20228;-64
2022/01/29 04:53:43;;;;;;;13.60;8.13;;;6.90;99.90;;;;;;5028805;28;20240;-63
2022/01/29 04:56:11;;;;;;;18.15;9.13;;;6.90;99.90;;;;;;5028072;28;20222;-63
2022/01/29 04:58:38;;;;;;;11.35;8.40;;;6.90;99.90;;;;;;5021958;28;20677;-63
2022/01/29 05:01:05;;;;;;;17.73;8.45;;;6.90;99.90;;;;;;5031744;28;20241;-63
2022/01/29 05:03:33;;;;;;;18.95;7.85;;;6.90;99.90;;;;;;5022067;28;20238;-63
2022/01/29 05:06:01;;;;;;;17.08;7.90;;;6.90;99.90;;;;;;5021897;28;20231;-63
2022/01/29 05:08:28;;;;;;;12.82;8.18;;;7.00;99.90;;;;;;5022817;28;20237;-64
2022/01/29 05:10:56;;;;;;;15.20;8.48;;;7.00;99.90;;;;;;5021651;28;20245;-64
2022/01/29 05:13:27;;;;;;;15.07;10.05;;;6.90;99.90;;;;;;5028115;28;20229;-64
2022/01/29 05:16:12;;;;;;;15.40;8.43;;;7.00;99.90;;;;;;5028328;28;20618;-64
2022/01/29 05:26:55;;;;;;;15.77;9.05;;;7.00;99.90;;;;;;5023287;28;20221;-64
2022/01/29 05:29:26;;;;;;;20.00;10.90;;;7.00;99.90;;;;;;5028014;28;20680;-64
2022/01/29 05:31:53;;;;;;;18.60;8.50;;;7.00;99.90;;;;;;5028475;28;20230;-64
2022/01/29 05:34:20;;;;;;;15.02;9.50;;;7.00;99.90;;;;;;5014450;28;20239;-64
2022/01/29 05:36:48;;;;;;;19.25;9.88;;;7.00;99.90;;;;;;5029152;28;20218;-64
2022/01/29 05:41:56;;;;;;;14.57;9.30;;;7.00;99.90;;;;;;5028176;28;20228;-64
2022/01/29 05:44:24;;;;;;;16.40;9.77;;;6.90;99.90;;;;;;5015617;28;20575;-64
2022/01/29 05:46:51;;;;;;;15.25;9.30;;;6.90;99.90;;;;;;5036506;28;20227;-64
2022/01/29 05:49:18;;;;;;;13.70;8.88;;;6.80;99.90;;;;;;5051829;28;20230;-64
2022/01/29 05:51:45;;;;;;;21.42;11.10;;;6.80;99.90;;;;;;5040910;28;20244;-64
2022/01/29 05:54:12;;;;;;;14.98;9.45;;;6.80;99.90;;;;;;5035582;28;20235;-65
2022/01/29 05:56:38;;;;;;;16.88;9.57;;;6.80;99.90;;;;;;5037253;28;20570;-64
2022/01/29 05:59:05;;;;;;;17.50;10.18;;;6.90;99.90;;;;;;5047389;28;20229;-65
2022/01/29 06:01:33;;;;;;;18.40;11.75;;;6.90;99.90;;;;;;5050437;28;20223;-64
2022/01/29 06:04:00;;;;;;;21.00;10.65;;;6.90;99.90;;;;;;5034754;28;20518;-64
2022/01/29 06:06:27;;;;;;;19.77;14.82;;;6.90;99.90;;;;;;5035985;28;20942;-64
2022/01/29 06:08:54;;;;;;;13.48;9.10;;;6.90;99.90;;;;;;5025242;28;20670;-64
2022/01/29 06:11:21;;;;;;;14.55;9.85;;;6.80;99.90;;;;;;5033710;28;20226;-64
2022/01/29 06:13:50;;;;;;;13.85;9.25;;;6.80;99.90;;;;;;5034302;28;20223;-64
2022/01/29 06:16:17;;;;;;;15.35;9.50;;;6.90;99.90;;;;;;5033609;28;20226;-64
2022/01/29 06:18:45;;;;;;;10.68;9.02;;;6.80;99.90;;;;;;5039658;28;20613;-64
2022/01/29 06:21:15;;;;;;;15.35;9.68;;;6.80;99.90;;;;;;5035779;28;20233;-64
2022/01/29 06:23:43;;;;;;;21.48;9.85;;;6.80;99.90;;;;;;5023002;28;20308;-64
2022/01/29 06:26:12;;;;;;;16.10;10.40;;;6.70;99.90;;;;;;5033086;28;20233;-63
2022/01/29 06:28:40;;;;;;;17.38;12.65;;;6.70;99.90;;;;;;5033884;28;20214;-63
2022/01/29 06:31:09;;;;;;;20.50;11.35;;;6.70;99.90;;;;;;5033696;28;20297;-63
2022/01/29 06:33:36;;;;;;;15.88;9.40;;;6.80;99.90;;;;;;5033721;28;20280;-63
2022/01/29 06:36:04;;;;;;;17.00;10.23;;;6.70;99.90;;;;;;5041882;28;20226;-63
2022/01/29 06:38:32;;;;;;;15.00;10.07;;;6.70;99.90;;;;;;5028472;28;20222;-63
2022/01/29 06:40:59;;;;;;;20.98;11.10;;;6.70;99.90;;;;;;5025852;28;20587;-64
2022/01/29 06:43:26;;;;;;;16.27;9.70;;;6.60;99.90;;;;;;5017915;28;20228;-64
2022/01/29 06:45:54;;;;;;;16.17;9.80;;;6.60;99.90;;;;;;5026227;28;20245;-64
2022/01/29 06:48:21;;;;;;;19.33;10.38;;;6.60;99.90;;;;;;5015469;28;20234;-64
2022/01/29 06:50:48;;;;;;;18.73;12.40;;;6.60;99.90;;;;;;5030933;28;20230;-63
2022/01/29 06:53:16;;;;;;;17.90;13.27;;;6.60;99.90;;;;;;5026761;28;20231;-63
2022/01/29 06:55:43;;;;;;;13.05;11.48;;;6.60;99.90;;;;;;5018817;28;20685;-64
2022/01/29 06:58:10;;;;;;;24.73;15.27;;;6.50;99.90;;;;;;5028579;28;20219;-64
2022/01/29 07:00:40;;;;;;;20.33;14.35;;;6.50;99.90;;;;;;5019274;28;20226;-64
2022/01/29 07:03:07;;;;;;;19.88;11.38;;;6.50;99.90;;;;;;5019345;28;20562;-64
2022/01/29 07:05:34;;;;;;;12.30;10.93;;;6.60;99.90;;;;;;5030055;28;20925;-63
2022/01/29 07:08:01;;;;;;;15.27;10.45;;;6.50;99.90;;;;;;5052360;28;20236;-63
2022/01/29 07:10:29;;;;;;;13.48;9.98;;;6.60;99.90;;;;;;5030902;28;20233;-63
2022/01/29 07:12:56;;;;;;;13.02;9.50;;;6.60;99.90;;;;;;5030881;28;20687;-64
2022/01/29 07:15:23;;;;;;;18.17;9.63;;;6.60;99.90;;;;;;5023680;28;20241;-64
2022/01/29 07:17:50;;;;;;;13.85;10.32;;;6.60;99.90;;;;;;5052647;28;20228;-64
2022/01/29 07:20:17;;;;;;;15.00;10.55;;;6.60;99.90;;;;;;5041001;28;20226;-64
2022/01/29 07:22:43;;;;;;;11.38;9.65;;;6.60;99.90;;;;;;5050392;28;20699;-64
2022/01/29 07:25:10;;;;;;;15.07;9.55;;;6.70;99.90;;;;;;5052354;28;20234;-64
2022/01/29 07:27:38;;;;;;;18.58;10.35;;;6.70;99.90;;;;;;5051888;28;20228;-64
2022/01/29 07:30:06;;;;;;;14.60;10.13;;;6.70;99.90;;;;;;5052113;28;20217;-64
2022/01/29 07:32:33;;;;;;;11.20;10.07;;;6.80;99.90;;;;;;5052134;28;20245;-65
2022/01/29 07:35:00;;;;;;;14.75;11.93;;;6.70;99.90;;;;;;5052931;28;20226;-65
2022/01/29 07:37:27;;;;;;;16.27;13.23;;;6.80;99.90;;;;;;5051966;28;20700;-65
2022/01/29 07:39:54;;;;;;;16.45;10.70;;;6.90;99.90;;;;;;5052499;28;20234;-64
2022/01/29 07:42:20;;;;;;;19.40;15.45;;;6.90;99.90;;;;;;5052201;28;20706;-64
2022/01/29 07:44:49;;;;;;;18.75;16.02;;;6.90;99.90;;;;;;5052596;28;20234;-65
2022/01/29 07:47:15;;;;;;;12.70;10.40;;;6.90;99.90;;;;;;5051996;28;20221;-64
2022/01/29 07:49:42;;;;;;;12.02;10.75;;;6.90;99.90;;;;;;5052674;28;20233;-63
2022/01/29 07:52:09;;;;;;;14.00;11.77;;;6.90;99.90;;;;;;5052191;28;20575;-63
2022/01/29 07:54:36;;;;;;;13.70;9.60;;;6.90;99.90;;;;;;5052108;28;20226;-64
2022/01/29 07:57:03;;;;;;;15.48;10.77;;;6.90;99.90;;;;;;5052427;28;20217;-64
2022/01/29 07:59:30;;;;;;;15.00;10.45;;;6.90;99.90;;;;;;5049528;28;20234;-65
2022/01/29 08:02:02;;;;;;;13.48;9.45;;;6.90;99.90;;;;;;5052311;28;20236;-64
2022/01/29 08:04:30;;;;;;;11.32;9.18;;;7.00;99.90;;;;;;5051718;28;20698;-64
2022/01/29 08:06:56;;;;;;;9.30;8.32;;;7.10;99.90;;;;;;5055858;28;20214;-65
2022/01/29 08:09:23;;;;;;;16.02;10.70;;;7.10;99.90;;;;;;5055939;28;20239;-65
2022/01/29 08:11:50;;;;;;;11.63;9.57;;;7.10;99.90;;;;;;5056615;28;20574;-64
2022/01/29 08:14:17;;;;;;;10.48;9.30;;;7.10;99.90;;;;;;5055900;28;20269;-63
2022/01/29 08:16:44;;;;;;;10.85;9.45;;;7.10;99.90;;;;;;5056268;28;20668;-64
2022/01/29 08:19:12;;;;;;;11.30;9.95;;;7.10;99.90;;;;;;5056112;28;20225;-64
2022/01/29 08:21:42;;;;;;;10.98;9.73;;;7.10;99.90;;;;;;5055748;28;20292;-64
2022/01/29 08:24:09;;;;;;;12.05;9.90;;;7.20;99.90;;;;;;5056187;28;20229;-64
2022/01/29 08:26:37;;;;;;;11.48;10.25;;;7.20;99.90;;;;;;5055826;28;20318;-64
2022/01/29 08:29:05;;;;;;;11.75;10.55;;;7.30;99.90;;;;;;5055979;28;20738;-64
2022/01/29 08:31:32;;;;;;;10.65;9.55;;;7.30;99.90;;;;;;5055620;28;20240;-64
2022/01/29 08:34:01;;;;;;;11.15;10.05;;;7.30;99.90;;;;;;5056071;28;20222;-63
2022/01/29 08:36:30;;;;;;;16.27;8.88;;;7.30;99.90;;;;;;5055300;28;20236;-64
2022/01/29 08:38:57;;;;;;;10.25;8.77;;;7.30;99.90;;;;;;5055966;28;20218;-63
2022/01/29 08:41:24;;;;;;;11.45;10.05;;;7.30;99.90;;;;;;5055571;28;20317;-65
2022/01/29 08:43:50;;;;;;;10.68;9.50;;;7.30;99.90;;;;;;5055760;28;20225;-64
2022/01/29 08:46:18;;;;;;;11.65;9.57;;;7.20;99.90;;;;;;5056040;28;20329;-64
2022/01/29 08:48:45;;;;;;;11.98;9.65;;;7.30;99.90;;;;;;5055425;28;20229;-64
2022/01/29 08:51:12;;;;;;;10.98;9.82;;;7.30;99.90;;;;;;5055588;28;20227;-65
2022/01/29 08:53:41;;;;;;;12.10;10.70;;;7.40;99.90;;;;;;5055226;28;20273;-64
2022/01/29 08:56:09;;;;;;;17.02;12.95;;;7.50;99.90;;;;;;5048478;28;20258;-64
2022/01/29 08:58:36;;;;;;;11.73;10.63;;;7.50;99.90;;;;;;5029993;28;20253;-63
2022/01/29 09:01:07;;;;;;;10.68;9.60;;;7.50;99.90;;;;;;5035584;28;20567;-65
2022/01/29 09:03:34;;;;;;;12.45;11.18;;;7.60;99.90;;;;;;5035102;28;20255;-64
2022/01/29 09:06:01;;;;;;;12.32;9.85;;;7.70;99.90;;;;;;5035509;28;20586;-64
2022/01/29 09:08:28;;;;;;;13.23;10.48;;;7.70;99.90;;;;;;5034914;28;20227;-64
2022/01/29 09:10:58;;;;;;;15.10;10.10;;;7.80;99.90;;;;;;5035274;28;20234;-65
2022/01/29 09:13:25;;;;;;;12.70;10.07;;;7.90;99.90;;;;;;5034787;28;20226;-66
2022/01/29 09:15:52;;;;;;;14.43;12.93;;;8.00;99.90;;;;;;5034866;28;20230;-63
2022/01/29 09:18:19;;;;;;;16.10;13.05;;;8.00;99.90;;;;;;5035084;28;20230;-63
2022/01/29 09:20:46;;;;;;;14.70;11.95;;;8.00;99.90;;;;;;5034881;28;20242;-64
2022/01/29 09:23:13;;;;;;;13.30;11.38;;;8.10;99.90;;;;;;5035156;28;20230;-64
2022/01/29 09:25:41;;;;;;;22.67;15.10;;;8.10;99.90;;;;;;5034639;28;20270;-63
2022/01/29 09:28:12;;;;;;;16.85;10.93;;;8.10;99.90;;;;;;5034894;28;20231;-64
2022/01/29 09:30:40;;;;;;;11.90;10.45;;;8.20;99.90;;;;;;5034661;28;20231;-64
2022/01/29 09:33:07;;;;;;;13.55;11.07;;;8.30;99.90;;;;;;5034904;28;20682;-65
2022/01/29 09:35:34;;;;;;;12.10;9.98;;;8.20;99.90;;;;;;5034462;28;20231;-64
2022/01/29 09:38:01;;;;;;;10.93;9.82;;;8.20;99.90;;;;;;5034759;28;20231;-64
2022/01/29 09:40:28;;;;;;;14.70;11.40;;;8.30;99.90;;;;;;5034359;28;20700;-65
2022/01/29 09:42:56;;;;;;;11.70;10.32;;;8.30;99.90;;;;;;5034754;28;20228;-65
2022/01/29 09:45:25;;;;;;;11.65;10.18;;;8.30;99.90;;;;;;5034803;28;20282;-63
2022/01/29 09:48:01;;;;;;;14.55;12.25;;;8.30;99.90;;;;;;5034194;28;20251;-64
2022/01/29 09:50:31;;;;;;;17.75;13.45;;;8.30;99.90;;;;;;5034248;28;20609;-65
2022/01/29 09:53:01;;;;;;;17.20;13.40;;;8.40;99.90;;;;;;5032434;28;20753;-64
2022/01/29 09:55:29;;;;;;;16.20;13.73;;;8.40;99.90;;;;;;5032894;28;20683;-65
2022/01/29 09:57:56;;;;;;;22.52;16.30;;;8.40;99.90;;;;;;5026302;28;20235;-64
2022/01/29 10:00:28;;;;;;;23.10;16.13;;;8.40;99.90;;;;;;5031892;28;20241;-65
2022/01/29 10:03:14;;;;;;;14.98;13.38;;;8.40;99.90;;;;;;5034308;28;20221;-64
2022/01/29 10:05:42;;;;;;;17.52;15.13;;;8.50;99.90;;;;;;5034055;28;20749;-64
2022/01/29 10:08:10;;;;;;;16.92;14.43;;;8.50;99.90;;;;;;5034297;28;20223;-64
2022/01/29 10:10:40;;;;;;;19.52;16.02;;;8.60;99.90;;;;;;5033708;28;20231;-64
2022/01/29 10:13:22;;;;;;;21.40;16.27;;;8.60;99.90;;;;;;5034505;28;20227;-64
2022/01/29 10:15:51;;;;;;;20.30;16.48;;;8.60;99.90;;;;;;5022596;28;20299;-64
2022/01/29 10:18:21;;;;;;;16.17;14.18;;;8.60;99.90;;;;;;5034116;28;20224;-64
2022/01/29 10:20:48;;;;;;;19.90;16.02;;;8.60;99.90;;;;;;5033640;28;20282;-64
2022/01/29 10:23:15;;;;;;;16.95;15.15;;;8.70;99.90;;;;;;5034156;28;20232;-65
2022/01/29 10:25:44;;;;;;;21.98;16.00;;;8.70;99.90;;;;;;5033529;28;20229;-64
2022/01/29 10:28:16;;;;;;;20.95;16.25;;;8.80;99.90;;;;;;5033203;28;20224;-64
2022/01/29 10:30:59;;;;;;;18.58;15.13;;;8.80;99.90;;;;;;5033512;28;20236;-64
2022/01/29 10:33:28;;;;;;;23.35;17.88;;;8.80;99.90;;;;;;5033879;28;20258;-64
2022/01/29 10:35:57;;;;;;;18.50;15.20;;;8.80;99.90;;;;;;5026707;28;20220;-65
2022/01/29 10:38:25;;;;;;;23.08;16.17;;;8.90;99.90;;;;;;5020463;28;20232;-64
2022/01/29 10:41:12;;;;;;;20.58;15.23;;;9.00;99.90;;;;;;5033276;28;20234;-64
2022/01/29 10:44:12;;;;;;;18.73;14.77;;;9.10;99.90;;;;;;5033198;28;20233;-63
2022/01/29 10:46:43;;;;;;;17.08;14.20;;;9.10;99.90;;;;;;5021011;28;20675;-64
2022/01/29 10:49:18;;;;;;;17.83;14.82;;;9.20;99.90;;;;;;5033470;28;20219;-64
2022/01/29 10:51:55;;;;;;;15.40;13.80;;;9.30;99.90;;;;;;5025092;28;20288;-64
2022/01/29 10:54:22;;;;;;;19.98;15.30;;;9.30;99.90;;;;;;5031396;28;20234;-64
2022/01/29 10:56:52;;;;;;;17.25;14.13;;;9.30;99.90;;;;;;5034107;28;20228;-64
2022/01/29 10:59:20;;;;;;;15.57;13.75;;;9.30;99.90;;;;;;5031087;28;20236;-65
2022/01/29 11:01:52;;;;;;;13.75;12.30;;;9.30;99.90;;;;;;5015361;28;20290;-63
2022/01/29 11:04:19;;;;;;;14.80;13.32;;;9.40;99.90;;;;;;5025063;28;20239;-63
2022/01/29 11:06:48;;;;;;;16.17;14.43;;;9.40;99.90;;;;;;5019375;28;20591;-64
2022/01/29 11:09:15;;;;;;;16.65;13.45;;;9.40;99.90;;;;;;5021243;28;20224;-64
2022/01/29 11:11:45;;;;;;;16.48;14.30;;;9.40;99.90;;;;;;5026255;28;20241;-64
2022/01/29 11:14:14;;;;;;;15.88;13.60;;;9.40;99.90;;;;;;5026126;28;20227;-64
2022/01/29 11:16:43;;;;;;;17.60;12.55;;;9.50;99.90;;;;;;5019222;28;20732;-63
2022/01/29 11:19:12;;;;;;;13.45;12.15;;;9.50;99.90;;;;;;5019697;28;20226;-63
2022/01/29 11:21:41;;;;;;;16.92;12.55;;;9.50;99.90;;;;;;5032584;28;20236;-63
2022/01/29 11:24:10;;;;;;;14.85;13.32;;;9.60;99.90;;;;;;5019820;28;20593;-64
2022/01/29 11:26:39;;;;;;;17.20;15.18;;;9.60;99.90;;;;;;5025081;28;20243;-65
2022/01/29 11:29:31;;;;;;;15.27;12.63;;;9.60;99.90;;;;;;5026401;28;20245;-63
2022/01/29 11:32:27;;;;;;;17.80;13.63;;;9.60;99.90;;;;;;5024352;28;20679;-64
2022/01/29 11:35:10;;;;;;;14.00;12.27;;;9.60;99.90;;;;;;5015269;28;20619;-63
2022/01/29 11:37:43;;;;;;;13.43;11.95;;;9.60;99.90;;;;;;5017347;28;20232;-64
2022/01/29 11:40:13;;;;;;;12.45;11.13;;;9.60;99.90;;;;;;5020565;28;20243;-65
2022/01/29 11:42:53;;;;;;;13.18;11.75;;;9.60;99.90;;;;;;5025652;28;20239;-64
2022/01/29 11:45:39;;;;;;;15.07;12.82;;;9.60;99.90;;;;;;5025977;28;20227;-64
2022/01/29 11:48:07;;;;;;;13.13;11.77;;;9.70;99.90;;;;;;5023643;28;20232;-64
2022/01/29 11:50:45;;;;;;;12.23;11.02;;;9.60;99.90;;;;;;5019071;28;20229;-64
2022/01/29 11:53:12;;;;;;;11.70;10.50;;;9.70;99.90;;;;;;5025180;28;20224;-64
2022/01/29 11:55:40;;;;;;;11.75;10.57;;;9.70;99.90;;;;;;5019369;28;20232;-64
2022/01/29 11:58:22;;;;;;;12.35;10.80;;;9.70;99.90;;;;;;5019955;28;20238;-63
2022/01/29 12:00:51;;;;;;;12.30;11.10;;;9.70;99.90;;;;;;5016946;28;20233;-64
2022/01/29 12:03:55;;;;;;;12.57;11.30;;;9.80;99.90;;;;;;5016068;28;20232;-63
2022/01/29 12:06:27;;;;;;;11.48;10.10;;;9.80;99.90;;;;;;5018716;28;20225;-63
2022/01/29 12:09:33;;;;;;;13.20;10.00;;;9.80;99.90;;;;;;5023290;28;20226;-63
2022/01/29 12:12:21;;;;;;;10.80;9.55;;;9.90;99.90;;;;;;5020482;28;20232;-64
2022/01/29 12:14:50;;;;;;;10.85;9.70;;;9.90;99.90;;;;;;5018473;28;20226;-64
2022/01/29 12:17:37;;;;;;;10.07;9.18;;;10.00;99.90;;;;;;5020937;28;20237;-63
2022/01/29 12:20:05;;;;;;;10.65;9.55;;;10.00;99.90;;;;;;5019930;28;20244;-64
2022/01/29 12:22:36;;;;;;;9.38;8.48;;;10.10;99.90;;;;;;5030225;28;20228;-64
2022/01/29 12:25:05;;;;;;;10.57;9.25;;;10.00;99.90;;;;;;5020815;28;20224;-64
2022/01/29 12:27:50;;;;;;;10.32;9.30;;;10.00;99.90;;;;;;5019168;28;20275;-64
2022/01/29 12:30:20;;;;;;;10.88;9.82;;;10.10;99.90;;;;;;5021116;28;20236;-64
2022/01/29 12:33:01;;;;;;;11.20;9.65;;;10.20;99.90;;;;;;5025316;28;20213;-64
2022/01/29 12:35:39;;;;;;;7.65;6.93;;;10.20;99.90;;;;;;5025132;28;20567;-64
2022/01/29 12:38:09;;;;;;;12.65;9.13;;;10.20;99.90;;;;;;5021420;28;20221;-64
2022/01/29 12:40:40;;;;;;;9.43;7.35;;;10.20;99.90;;;;;;5018313;28;20236;-64
2022/01/29 12:43:22;;;;;;;10.77;9.00;;;10.30;99.90;;;;;;5021945;28;20247;-63
2022/01/29 12:45:50;;;;;;;8.45;7.65;;;10.30;99.90;;;;;;5025167;28;20623;-63
2022/01/29 12:48:18;;;;;;;9.77;8.80;;;10.40;99.90;;;;;;5025315;28;20708;-65
2022/01/29 12:50:45;;;;;;;15.73;13.60;;;10.40;99.90;;;;;;5019044;28;20237;-65
2022/01/29 12:53:16;;;;;;;14.55;11.65;;;10.30;99.90;;;;;;5029263;28;20225;-65
2022/01/29 12:55:44;;;;;;;10.20;9.07;;;10.40;99.90;;;;;;5023321;28;20232;-64
2022/01/29 12:58:11;;;;;;;8.60;7.80;;;10.40;99.90;;;;;;5021117;28;20237;-64
2022/01/29 13:00:39;;;;;;;9.05;8.15;;;10.40;99.90;;;;;;5028253;28;20251;-64
2022/01/29 13:03:09;;;;;;;9.20;7.78;;;10.50;99.90;;;;;;5022290;28;20223;-65
2022/01/29 13:05:43;;;;;;;11.73;7.82;;;10.40;99.90;;;;;;5026308;28;20664;-64